LETO/TOJ METAR and TAF weather

Enter ICAO airport designator
Station Type Date Time Source
LETO METAR 2019/08/22 07:00 UTC NOAA

LETO 220700Z 03003KT 350V080 CAVOK 17/15 Q1023 NOSIG


Station Type Date Time Source
LETO Decoded METAR 2019/08/22 07:00 UTC NOAA

Station name not available
Aug 22, 2019 - 03:00 AM EDT / 2019.08.22 0700 UTC
Wind: from the NNE (030 degrees) at 3 MPH (3 KT) (direction variable):0
Visibility: greater than 7 mile(s):0
Temperature: 62 F (17 C)
Dew Point: 59 F (15 C)
Relative Humidity: 88%
Pressure (altimeter): 30.21 in. Hg (1023 hPa)
ob: LETO 220700Z 03003KT 350V080 CAVOK 17/15 Q1023 NOSIG
cycle: 7

Station Type Date Time Source
LETO TAF 2019/08/22 06:27 UTC NOAA

TAF LETO 220500Z 2206/2306 VRB05KT CAVOK TX33/2216Z TN16/2206Z PROB30
TEMPO 2206/2218 07010KT

Example: see airport list